Terminal Aerodrome Forecast
Issued by NWS

Home | Current Version | Previous Version | Text Only | Print | Product List | Glossary On
Versions: 1 2 3 4 5 6 7 8 9 10 11 12 13 14 15 16 17 18 19 20 21 22 23 24 25 26
000
FTUS41 KBOX 202015 AAA
TAFBED
TAF AMD
KBED 202015Z 2020/2118 20008KT P6SM BKN045
     FM202200 20008KT P6SM SCT050
     FM210300 19007KT P6SM SCT050
     FM210500 19006KT P6SM BKN040
     FM210900 17006KT 3SM BR BKN015
     FM211200 17005KT 3SM BR BKN007
     FM211500 16009KT P6SM BKN015=

USA.gov is the U.S. government's official web portal to all federal, state and local government web resources and services.